createdAt,value
2023-04-09T00:02:55.705Z,5.11
2023-04-09T00:05:58.480Z,5.06
2023-04-09T00:09:01.171Z,5.05
2023-04-09T00:12:03.916Z,5.06
2023-04-09T00:15:09.653Z,5.00
2023-04-09T00:18:14.704Z,4.94
2023-04-09T00:21:21.224Z,4.86
2023-04-09T00:24:23.890Z,4.78
2023-04-09T00:27:26.606Z,4.86
2023-04-09T00:30:30.550Z,4.89
2023-04-09T00:33:33.252Z,4.92
2023-04-09T00:36:36.340Z,4.96
2023-04-09T00:39:39.060Z,5.03
2023-04-09T00:42:42.179Z,4.99
2023-04-09T00:45:45.592Z,5.00
2023-04-09T00:48:48.332Z,4.98
2023-04-09T00:51:52.737Z,4.96
2023-04-09T00:54:55.499Z,4.97
2023-04-09T00:57:58.268Z,5.00
2023-04-09T01:01:01.128Z,5.05
2023-04-09T01:04:04.406Z,5.05
2023-04-09T01:07:20.352Z,5.04
2023-04-09T01:10:31.084Z,5.06
2023-04-09T01:13:53.515Z,5.07
2023-04-09T01:17:04.863Z,5.06
2023-04-09T01:20:18.808Z,5.08
2023-04-09T01:23:47.619Z,5.13
2023-04-09T01:27:07.949Z,5.12
2023-04-09T01:30:11.975Z,5.15
2023-04-09T01:33:18.325Z,5.19
2023-04-09T01:36:21.893Z,5.21
2023-04-09T01:39:25.684Z,5.24
2023-04-09T01:42:29.770Z,5.27
2023-04-09T01:45:33.170Z,5.30
2023-04-09T01:48:36.816Z,5.33
2023-04-09T01:51:39.778Z,5.34
2023-04-09T01:54:43.172Z,5.32
2023-04-09T01:57:46.138Z,5.30
2023-04-09T02:00:50.088Z,5.30
2023-04-09T02:04:03.452Z,5.30
2023-04-09T02:07:10.185Z,5.30
2023-04-09T02:10:14.295Z,5.33
2023-04-09T02:13:19.023Z,5.37
2023-04-09T02:16:22.883Z,5.35
2023-04-09T02:19:25.996Z,5.35
2023-04-09T02:22:28.692Z,5.33
2023-04-09T02:25:31.927Z,5.32
2023-04-09T02:28:34.923Z,5.24
2023-04-09T02:31:37.649Z,5.23
2023-04-09T02:34:40.688Z,5.18
2023-04-09T02:37:43.422Z,5.11
2023-04-09T02:40:46.112Z,5.06
2023-04-09T02:43:49.142Z,5.04
2023-04-09T02:46:54.945Z,5.04
2023-04-09T02:49:57.627Z,5.04
2023-04-09T02:53:00.435Z,5.04
2023-04-09T02:56:03.620Z,5.01
2023-04-09T02:59:06.433Z,4.87
2023-04-09T03:02:09.423Z,4.90
2023-04-09T03:05:12.285Z,4.91
2023-04-09T03:08:15.049Z,4.89
2023-04-09T03:11:18.066Z,4.90
2023-04-09T03:14:20.744Z,4.90
2023-04-09T03:17:25.851Z,4.89
2023-04-09T03:20:28.477Z,4.90
2023-04-09T03:23:35.173Z,4.84
2023-04-09T03:26:38.682Z,4.69
2023-04-09T03:29:41.669Z,4.50
2023-04-09T03:32:44.510Z,4.35
2023-04-09T03:35:47.300Z,4.28
2023-04-09T03:38:50.570Z,4.35
2023-04-09T03:41:54.730Z,4.40
2023-04-09T03:44:57.443Z,4.46
2023-04-09T03:48:00.238Z,4.48
2023-04-09T03:51:03.020Z,4.42
2023-04-09T03:54:05.761Z,4.37
2023-04-09T03:57:08.488Z,4.32
2023-04-09T04:00:11.891Z,4.30
2023-04-09T04:03:16.513Z,4.34
2023-04-09T04:06:20.449Z,4.36
2023-04-09T04:09:26.902Z,4.37
2023-04-09T04:12:31.964Z,4.37
2023-04-09T04:15:42.177Z,4.28
2023-04-09T04:18:44.942Z,4.22
2023-04-09T04:21:49.639Z,4.25
2023-04-09T04:24:52.331Z,4.18
2023-04-09T04:27:55.551Z,4.14
2023-04-09T04:30:59.782Z,4.09
2023-04-09T04:34:02.481Z,4.03
2023-04-09T04:37:05.358Z,3.97
2023-04-09T04:40:08.938Z,3.93
2023-04-09T04:43:11.701Z,3.91
2023-04-09T04:46:14.416Z,3.91
2023-04-09T04:49:17.285Z,3.92
2023-04-09T04:52:20.020Z,4.00
2023-04-09T04:55:22.713Z,4.08
2023-04-09T04:58:26.092Z,4.14
2023-04-09T05:01:28.872Z,4.26
2023-04-09T05:04:33.790Z,4.33
2023-04-09T05:07:36.760Z,4.37
2023-04-09T05:10:46.936Z,4.38
2023-04-09T05:13:49.576Z,4.38
2023-04-09T05:16:52.406Z,4.35
2023-04-09T05:19:55.253Z,4.29
2023-04-09T05:22:57.889Z,4.25
2023-04-09T05:26:00.618Z,4.25
2023-04-09T05:29:03.370Z,4.22
2023-04-09T05:32:06.998Z,4.20
2023-04-09T05:35:09.734Z,4.27
2023-04-09T05:38:13.867Z,4.26
2023-04-09T05:41:16.647Z,4.29
2023-04-09T05:44:27.703Z,4.31
2023-04-09T05:47:30.633Z,4.22
2023-04-09T05:50:43.629Z,4.16
2023-04-09T05:53:50.454Z,4.25
2023-04-09T05:56:53.330Z,4.31
2023-04-09T05:59:56.469Z,4.41
2023-04-09T06:02:59.368Z,4.49
2023-04-09T06:06:08.416Z,4.54
2023-04-09T06:09:17.605Z,4.62
2023-04-09T06:12:20.516Z,4.67
2023-04-09T06:15:27.610Z,4.69
2023-04-09T06:18:30.349Z,4.71
2023-04-09T06:21:33.341Z,4.77
2023-04-09T06:24:38.436Z,4.83
2023-04-09T06:27:41.052Z,4.76
2023-04-09T06:30:43.794Z,4.72
2023-04-09T06:33:46.481Z,4.67
2023-04-09T06:36:49.185Z,4.66
2023-04-09T06:40:00.412Z,4.68
2023-04-09T06:43:05.082Z,4.71
2023-04-09T06:46:07.930Z,4.75
2023-04-09T06:49:11.138Z,4.84
2023-04-09T06:52:13.832Z,4.95
2023-04-09T06:55:16.636Z,5.12
2023-04-09T06:58:19.416Z,5.30
2023-04-09T07:01:22.232Z,5.36
2023-04-09T07:04:25.099Z,5.28
2023-04-09T07:07:27.976Z,5.18
2023-04-09T07:10:30.654Z,5.18
2023-04-09T07:13:33.626Z,5.23
2023-04-09T07:16:36.454Z,5.29
2023-04-09T07:19:39.175Z,5.38
2023-04-09T07:22:41.934Z,5.45
2023-04-09T07:25:44.621Z,5.51
2023-04-09T07:28:47.272Z,5.51
2023-04-09T07:31:50.018Z,5.53
2023-04-09T07:34:53.982Z,5.60
2023-04-09T07:37:57.378Z,5.70
2023-04-09T07:41:00.380Z,5.70
2023-04-09T07:44:03.608Z,5.68
2023-04-09T07:47:08.678Z,5.70
2023-04-09T07:50:12.363Z,5.73
2023-04-09T07:53:15.666Z,5.77
2023-04-09T07:56:18.436Z,5.77
2023-04-09T07:59:21.410Z,5.71
2023-04-09T08:02:24.457Z,5.58
2023-04-09T08:05:28.431Z,5.43
2023-04-09T08:08:31.130Z,5.41
2023-04-09T08:11:33.890Z,5.31
2023-04-09T08:14:36.828Z,5.35
2023-04-09T08:17:40.715Z,5.46
2023-04-09T08:20:45.579Z,5.59
2023-04-09T08:23:48.599Z,5.70
2023-04-09T08:26:51.330Z,5.83
2023-04-09T08:29:54.018Z,5.87
2023-04-09T08:32:56.743Z,5.88
2023-04-09T08:36:00.836Z,5.91
2023-04-09T08:39:05.558Z,5.97
2023-04-09T08:42:08.937Z,6.05
2023-04-09T08:45:13.092Z,6.16
2023-04-09T08:48:21.339Z,6.23
2023-04-09T08:51:24.727Z,6.33
2023-04-09T08:54:42.007Z,6.37
2023-04-09T08:57:44.844Z,6.42
2023-04-09T09:00:47.766Z,6.46
2023-04-09T09:03:56.840Z,6.50
2023-04-09T09:07:06.853Z,6.52
2023-04-09T09:10:09.914Z,6.55
2023-04-09T09:13:22.627Z,6.61
2023-04-09T09:16:34.802Z,6.72
2023-04-09T09:19:37.622Z,6.85
2023-04-09T09:22:54.906Z,6.97
2023-04-09T09:26:00.936Z,7.09
2023-04-09T09:29:05.879Z,7.14
2023-04-09T09:32:13.641Z,7.19
2023-04-09T09:35:16.463Z,7.23
2023-04-09T09:38:19.189Z,7.25
2023-04-09T09:41:22.231Z,7.29
2023-04-09T09:44:33.433Z,7.33
2023-04-09T09:47:37.627Z,7.36
2023-04-09T09:50:44.642Z,7.45
2023-04-09T09:53:52.521Z,7.55
2023-04-09T09:57:02.126Z,7.59
2023-04-09T10:00:06.841Z,7.61
2023-04-09T10:03:20.065Z,7.60
2023-04-09T10:06:23.950Z,7.52
2023-04-09T10:09:28.241Z,7.56
2023-04-09T10:12:31.247Z,7.68
2023-04-09T10:15:33.993Z,7.79
2023-04-09T10:18:36.807Z,7.84
2023-04-09T10:21:53.542Z,7.92
2023-04-09T10:24:58.173Z,8.02
2023-04-09T10:28:02.613Z,8.09
2023-04-09T10:31:07.811Z,8.18
2023-04-09T10:34:12.440Z,8.25
2023-04-09T10:37:20.616Z,8.25
2023-04-09T10:40:23.392Z,8.34
2023-04-09T10:43:26.059Z,8.41
2023-04-09T10:46:30.996Z,8.50
2023-04-09T10:49:38.240Z,8.56
2023-04-09T10:52:42.544Z,8.65
2023-04-09T10:55:52.684Z,8.77
2023-04-09T10:58:55.856Z,8.86
2023-04-09T11:01:58.618Z,8.94
2023-04-09T11:05:30.691Z,9.02
2023-04-09T11:08:34.166Z,8.98
2023-04-09T11:11:37.040Z,9.02
2023-04-09T11:14:39.727Z,9.07
2023-04-09T11:17:43.271Z,9.18
2023-04-09T11:20:46.219Z,9.29
2023-04-09T11:23:53.056Z,9.35
2023-04-09T11:26:56.809Z,9.41
2023-04-09T11:30:00.522Z,9.45
2023-04-09T11:33:03.543Z,9.52
2023-04-09T11:36:07.187Z,9.55
2023-04-09T11:39:09.831Z,9.52
2023-04-09T11:42:15.902Z,9.50
2023-04-09T11:45:20.892Z,9.54
2023-04-09T11:48:25.077Z,9.60
2023-04-09T11:51:28.754Z,9.64
2023-04-09T11:54:34.538Z,9.73
2023-04-09T11:57:39.250Z,9.81
2023-04-09T12:00:41.890Z,9.90
2023-04-09T12:03:44.641Z,9.99
2023-04-09T12:06:48.574Z,10.06
2023-04-09T12:09:51.231Z,10.16
2023-04-09T12:12:53.924Z,10.25
2023-04-09T12:15:58.716Z,10.28
2023-04-09T12:19:09.352Z,10.32
2023-04-09T12:22:12.117Z,10.39
2023-04-09T12:25:26.761Z,10.48
2023-04-09T12:28:29.515Z,10.63
2023-04-09T12:31:32.174Z,10.74
2023-04-09T12:34:34.805Z,10.84
2023-04-09T12:37:37.520Z,10.90
2023-04-09T12:40:40.841Z,10.95
2023-04-09T12:43:44.062Z,10.99
2023-04-09T12:46:48.519Z,11.02
2023-04-09T12:49:51.335Z,11.03
2023-04-09T12:52:54.175Z,11.03
2023-04-09T12:55:57.142Z,11.01
2023-04-09T12:58:59.840Z,10.96
2023-04-09T13:02:03.347Z,10.96
2023-04-09T13:05:06.789Z,10.96
2023-04-09T13:08:09.466Z,10.94
2023-04-09T13:11:12.043Z,10.93
2023-04-09T13:14:14.678Z,10.94
2023-04-09T13:17:17.399Z,10.94
2023-04-09T13:20:20.877Z,10.97
2023-04-09T13:23:23.492Z,11.01
2023-04-09T13:26:26.456Z,11.09
2023-04-09T13:29:29.542Z,11.19
2023-04-09T13:32:32.463Z,11.33
2023-04-09T13:35:35.115Z,11.44
2023-04-09T13:38:38.422Z,11.57
2023-04-09T13:41:41.116Z,11.64
2023-04-09T13:44:45.652Z,11.65
2023-04-09T13:47:49.469Z,11.60
2023-04-09T13:50:52.193Z,11.58
2023-04-09T13:53:54.843Z,11.55
2023-04-09T13:57:05.905Z,11.52
2023-04-09T14:00:09.192Z,11.50
2023-04-09T14:03:13.256Z,11.51
2023-04-09T14:06:15.987Z,11.58
2023-04-09T14:09:18.524Z,11.65
2023-04-09T14:12:21.277Z,11.71
2023-04-09T14:15:23.864Z,11.73
2023-04-09T14:18:26.528Z,11.72
2023-04-09T14:21:29.308Z,11.74
2023-04-09T14:24:31.968Z,11.78
2023-04-09T14:27:34.568Z,11.85
2023-04-09T14:30:37.194Z,11.88
2023-04-09T14:33:40.773Z,11.85
2023-04-09T14:36:43.396Z,11.79
2023-04-09T14:39:46.114Z,11.73
2023-04-09T14:42:50.245Z,11.71
2023-04-09T14:45:54.433Z,11.79
2023-04-09T14:48:56.994Z,11.82
2023-04-09T14:51:59.548Z,11.80
2023-04-09T14:55:02.143Z,11.80
2023-04-09T14:58:07.373Z,11.77
2023-04-09T15:01:10.034Z,11.74
2023-04-09T15:04:12.804Z,11.67
2023-04-09T15:07:18.983Z,11.63
2023-04-09T15:10:21.792Z,11.58
2023-04-09T15:13:24.468Z,11.52
2023-04-09T15:16:28.845Z,11.49
2023-04-09T15:19:32.669Z,11.47
2023-04-09T15:22:35.489Z,11.47
2023-04-09T15:25:39.846Z,11.48
2023-04-09T15:28:42.592Z,11.47
2023-04-09T15:31:45.198Z,11.45
2023-04-09T15:34:47.792Z,11.42
2023-04-09T15:37:51.421Z,11.39
2023-04-09T15:40:56.524Z,11.39
2023-04-09T15:43:59.290Z,11.44
2023-04-09T15:47:01.890Z,11.48
2023-04-09T15:50:04.950Z,11.50
2023-04-09T15:53:07.565Z,11.50
2023-04-09T15:56:15.256Z,11.50
2023-04-09T15:59:19.012Z,11.50
2023-04-09T16:02:22.673Z,11.52
2023-04-09T16:05:26.326Z,11.52
2023-04-09T16:08:28.862Z,11.51
2023-04-09T16:11:40.630Z,11.49
2023-04-09T16:14:43.288Z,11.45
2023-04-09T16:17:46.250Z,11.42
2023-04-09T16:20:56.642Z,11.38
2023-04-09T16:24:00.894Z,11.32
2023-04-09T16:27:17.100Z,11.26
2023-04-09T16:30:19.823Z,11.22
2023-04-09T16:33:22.614Z,11.19
2023-04-09T16:36:26.501Z,11.17
2023-04-09T16:39:30.172Z,11.16
2023-04-09T16:42:32.930Z,11.12
2023-04-09T16:45:35.848Z,11.10
2023-04-09T16:48:41.792Z,11.08
2023-04-09T16:51:44.664Z,11.07
2023-04-09T16:54:47.572Z,11.08
2023-04-09T16:57:50.610Z,11.07
2023-04-09T17:00:53.443Z,11.06
2023-04-09T17:03:56.671Z,11.04
2023-04-09T17:07:01.401Z,11.00
2023-04-09T17:10:05.052Z,10.95
2023-04-09T17:13:12.246Z,10.91
2023-04-09T17:16:15.624Z,10.86
2023-04-09T17:19:19.719Z,10.82
2023-04-09T17:22:29.179Z,10.81
2023-04-09T17:25:31.828Z,10.80
2023-04-09T17:28:34.458Z,10.79
2023-04-09T17:31:38.773Z,10.77
2023-04-09T17:34:41.548Z,10.74
2023-04-09T17:37:44.214Z,10.69
2023-04-09T17:40:48.065Z,10.63
2023-04-09T17:43:50.897Z,10.59
2023-04-09T17:46:53.988Z,10.58
2023-04-09T17:49:56.850Z,10.57
2023-04-09T17:52:59.455Z,10.54
2023-04-09T17:56:04.052Z,10.51
2023-04-09T17:59:07.268Z,10.46
2023-04-09T18:02:10.710Z,10.41
2023-04-09T18:05:13.810Z,10.36
2023-04-09T18:08:17.508Z,10.34
2023-04-09T18:11:21.211Z,10.33
2023-04-09T18:14:23.952Z,10.31
2023-04-09T18:17:26.726Z,10.29
2023-04-09T18:20:29.834Z,10.26
2023-04-09T18:23:32.970Z,10.23
2023-04-09T18:26:36.832Z,10.20
2023-04-09T18:29:39.880Z,10.15
2023-04-09T18:32:43.631Z,10.12
2023-04-09T18:35:46.556Z,10.10
2023-04-09T18:38:49.559Z,10.12
2023-04-09T18:41:52.289Z,10.11
2023-04-09T18:44:55.216Z,10.09
2023-04-09T18:47:57.836Z,10.06
2023-04-09T18:51:03.161Z,10.01
2023-04-09T18:54:06.505Z,9.96
2023-04-09T18:57:09.530Z,9.93
2023-04-09T19:00:12.660Z,9.92
2023-04-09T19:03:17.081Z,9.92
2023-04-09T19:06:20.527Z,9.91
2023-04-09T19:09:23.729Z,9.91
2023-04-09T19:12:29.708Z,9.90
2023-04-09T19:15:38.490Z,9.89
2023-04-09T19:18:41.439Z,9.84
2023-04-09T19:21:44.041Z,9.83
2023-04-09T19:24:47.080Z,9.83
2023-04-09T19:27:49.847Z,9.82
2023-04-09T19:30:53.170Z,9.81
2023-04-09T19:33:58.319Z,9.80
2023-04-09T19:37:02.819Z,9.72
2023-04-09T19:40:07.889Z,9.74
2023-04-09T19:43:11.189Z,9.69
2023-04-09T19:46:13.751Z,9.70
2023-04-09T19:49:16.779Z,9.70
2023-04-09T19:56:10.525Z,9.67
2023-04-09T19:59:13.209Z,9.65
2023-04-09T20:02:16.206Z,9.62
2023-04-09T20:05:34.497Z,9.57
2023-04-09T20:08:38.117Z,9.53
2023-04-09T20:11:42.252Z,9.55
2023-04-09T20:14:51.098Z,9.56
2023-04-09T20:17:53.855Z,9.51
2023-04-09T20:20:56.603Z,9.38
2023-04-09T20:23:59.271Z,9.20
2023-04-09T20:27:02.249Z,9.06
2023-04-09T20:30:06.287Z,9.01
2023-04-09T20:33:09.083Z,9.04
2023-04-09T20:36:19.250Z,9.09
2023-04-09T20:39:22.597Z,9.11
2023-04-09T20:42:25.261Z,9.12
2023-04-09T20:45:27.955Z,9.12
2023-04-09T20:48:34.007Z,9.12
2023-04-09T20:51:37.024Z,9.16
2023-04-09T20:54:49.873Z,9.18
2023-04-09T20:57:56.528Z,9.19
2023-04-09T21:01:09.903Z,9.23
2023-04-09T21:04:13.028Z,9.25
2023-04-09T21:07:16.320Z,9.26
2023-04-09T21:10:19.152Z,9.28
2023-04-09T21:13:23.418Z,9.31
2023-04-09T21:16:29.911Z,9.34
2023-04-09T21:19:32.508Z,9.37
2023-04-09T21:22:35.763Z,9.36
2023-04-09T21:25:38.471Z,9.34
2023-04-09T21:28:41.129Z,9.34
2023-04-09T21:31:43.804Z,9.35
2023-04-09T21:34:46.444Z,9.37
2023-04-09T21:37:53.107Z,9.40
2023-04-09T21:40:55.651Z,9.40
2023-04-09T21:43:58.303Z,9.42
2023-04-09T21:47:01.997Z,9.43
2023-04-09T21:50:05.239Z,9.42
2023-04-09T21:53:08.345Z,9.43
2023-04-09T21:56:10.855Z,9.45
2023-04-09T21:59:13.435Z,9.47
2023-04-09T22:02:16.117Z,9.47
2023-04-09T22:05:18.850Z,9.48
2023-04-09T22:08:21.450Z,9.47
2023-04-09T22:11:28.594Z,9.47
2023-04-09T22:14:32.718Z,9.51
2023-04-09T22:17:35.516Z,9.52
2023-04-09T22:20:38.166Z,9.53
2023-04-09T22:23:40.742Z,9.53
2023-04-09T22:27:02.276Z,9.52
2023-04-09T22:30:06.403Z,9.49
2023-04-09T22:33:09.110Z,9.49
2023-04-09T22:36:12.154Z,9.51
2023-04-09T22:39:14.782Z,9.54
2023-04-09T22:42:17.486Z,9.56
2023-04-09T22:45:20.475Z,9.56
2023-04-09T22:48:23.561Z,9.54
2023-04-09T22:51:26.176Z,9.51
2023-04-09T22:54:30.190Z,9.50
2023-04-09T22:57:32.786Z,9.49
2023-04-09T23:00:35.468Z,9.49
2023-04-09T23:03:38.143Z,9.48
2023-04-09T23:06:40.786Z,9.47
2023-04-09T23:09:43.366Z,9.44
2023-04-09T23:12:46.299Z,9.41
2023-04-09T23:15:48.858Z,9.39
2023-04-09T23:18:51.675Z,9.37
2023-04-09T23:21:54.308Z,9.35
2023-04-09T23:25:09.549Z,9.33
2023-04-09T23:28:12.127Z,9.30
2023-04-09T23:31:14.711Z,9.30
2023-04-09T23:34:39.974Z,9.31
2023-04-09T23:37:42.698Z,9.30
2023-04-09T23:40:49.852Z,9.28
2023-04-09T23:43:52.839Z,9.27
2023-04-09T23:46:55.762Z,9.25
2023-04-09T23:49:59.678Z,9.23
2023-04-09T23:53:03.957Z,9.23
2023-04-09T23:56:18.550Z,9.22
2023-04-09T23:59:21.157Z,9.19
